createdAt,value
2023-05-05T00:00:19.592Z,5.7231
2023-05-05T00:01:20.669Z,5.6615
2023-05-05T00:02:21.739Z,5.4077
2023-05-05T00:03:22.900Z,5.4000
2023-05-05T00:04:23.694Z,5.5615
2023-05-05T00:05:24.762Z,5.4846
2023-05-05T00:06:25.784Z,5.3846
2023-05-05T00:07:26.836Z,5.4538
2023-05-05T00:08:27.851Z,5.3077
2023-05-05T00:09:28.942Z,5.5077
2023-05-05T00:10:29.967Z,5.3385
2023-05-05T00:11:30.974Z,4.9615
2023-05-05T00:12:32.032Z,5.2538
2023-05-05T00:13:32.996Z,5.3462
2023-05-05T00:14:34.033Z,5.2769
2023-05-05T00:15:35.091Z,5.4846
2023-05-05T00:16:36.185Z,5.5538
2023-05-05T00:17:37.201Z,5.7615
2023-05-05T00:18:38.166Z,5.8231
2023-05-05T00:19:39.233Z,5.9923
2023-05-05T00:20:40.240Z,5.6615
2023-05-05T00:21:41.312Z,5.6769
2023-05-05T00:22:42.329Z,6.1077
2023-05-05T00:23:43.376Z,5.8923
2023-05-05T00:24:44.408Z,6.1846
2023-05-05T00:25:45.456Z,6.3154
2023-05-05T00:26:46.469Z,5.9462
2023-05-05T00:27:47.529Z,6.1462
2023-05-05T00:28:48.504Z,6.2615
2023-05-05T00:29:49.567Z,6.2923
2023-05-05T00:30:50.608Z,6.3000
2023-05-05T00:31:51.632Z,6.2231
2023-05-05T00:32:52.690Z,6.1077
2023-05-05T00:33:53.732Z,6.0615
2023-05-05T00:34:54.716Z,6.2231
2023-05-05T00:35:55.812Z,6.1154
2023-05-05T00:36:56.798Z,6.1692
2023-05-05T00:37:57.873Z,6.1077
2023-05-05T00:38:58.925Z,6.0385
2023-05-05T00:39:59.936Z,6.0000
2023-05-05T00:41:00.912Z,5.9154
2023-05-05T00:42:01.995Z,5.7615
2023-05-05T00:43:03.011Z,5.6000
2023-05-05T00:44:04.082Z,6.0154
2023-05-05T00:45:05.055Z,6.1769
2023-05-05T00:46:06.137Z,6.2385
2023-05-05T00:47:07.126Z,6.2923
2023-05-05T00:48:08.224Z,6.1308
2023-05-05T00:49:09.237Z,6.2769
2023-05-05T00:50:10.270Z,6.1077
2023-05-05T00:51:11.276Z,6.2615
2023-05-05T00:52:21.587Z,6.3091
2023-05-05T00:53:22.954Z,6.0000
2023-05-05T00:54:23.998Z,6.5000
2023-05-05T00:55:24.896Z,5.9692
2023-05-05T00:56:25.967Z,5.9846
2023-05-05T00:57:26.978Z,6.1000
2023-05-05T00:58:28.132Z,6.1923
2023-05-05T00:59:29.096Z,6.2000
2023-05-05T01:00:30.109Z,6.1769
2023-05-05T01:01:31.183Z,6.3846
2023-05-05T01:02:32.276Z,6.0846
2023-05-05T01:03:33.432Z,6.2231
2023-05-05T01:04:34.297Z,6.3538
2023-05-05T01:05:35.309Z,6.5385
2023-05-05T01:06:36.316Z,6.2154
2023-05-05T01:07:37.390Z,6.4692
2023-05-05T01:08:38.421Z,6.2385
2023-05-05T01:09:39.471Z,6.3231
2023-05-05T01:10:40.601Z,6.6308
2023-05-05T01:11:41.630Z,6.4308
2023-05-05T01:12:42.652Z,6.5308
2023-05-05T01:13:43.693Z,6.4154
2023-05-05T01:14:44.734Z,6.1846
2023-05-05T01:15:45.711Z,6.3769
2023-05-05T01:16:46.755Z,6.1538
2023-05-05T01:17:47.813Z,6.0846
2023-05-05T01:18:48.879Z,6.3462
2023-05-05T01:19:49.926Z,6.3846
2023-05-05T01:20:50.900Z,6.0308
2023-05-05T01:21:51.953Z,6.3154
2023-05-05T01:22:52.953Z,6.3308
2023-05-05T01:23:54.013Z,6.1154
2023-05-05T01:24:55.175Z,6.3538
2023-05-05T01:25:56.109Z,6.3077
2023-05-05T01:26:57.148Z,6.4308
2023-05-05T01:27:58.135Z,6.4077
2023-05-05T01:28:59.274Z,6.5077
2023-05-05T01:30:00.257Z,6.5385
2023-05-05T01:31:01.333Z,6.5077
2023-05-05T01:32:02.328Z,6.5154
2023-05-05T01:33:03.313Z,6.3615
2023-05-05T01:34:04.418Z,6.7308
2023-05-05T01:35:05.417Z,6.5077
2023-05-05T01:36:06.433Z,6.7077
2023-05-05T01:37:07.521Z,6.7077
2023-05-05T01:38:08.493Z,6.7615
2023-05-05T01:39:09.614Z,6.6000
2023-05-05T01:40:10.617Z,6.6077
2023-05-05T01:41:11.611Z,6.3154
2023-05-05T01:42:12.610Z,6.5000
2023-05-05T01:43:13.694Z,6.5846
2023-05-05T01:44:14.774Z,6.5923
2023-05-05T01:45:15.849Z,6.5000
2023-05-05T01:46:16.867Z,6.5385
2023-05-05T01:47:17.819Z,6.7462
2023-05-05T01:48:18.882Z,6.5308
2023-05-05T01:49:19.995Z,6.3308
2023-05-05T01:50:21.002Z,6.4308
2023-05-05T01:51:21.973Z,6.3846
2023-05-05T01:52:23.026Z,6.1538
2023-05-05T01:53:24.018Z,6.2154
2023-05-05T01:54:25.131Z,6.2846
2023-05-05T01:55:26.172Z,6.2846
2023-05-05T01:56:27.223Z,6.0615
2023-05-05T01:57:28.179Z,5.7231
2023-05-05T01:58:29.224Z,5.4615
2023-05-05T01:59:30.302Z,5.6538
2023-05-05T02:00:31.400Z,5.7000
2023-05-05T02:01:32.323Z,5.7923
2023-05-05T02:02:33.413Z,5.6385
2023-05-05T02:03:34.404Z,5.4308
2023-05-05T02:04:35.463Z,5.5231
2023-05-05T02:05:36.490Z,5.3692
2023-05-05T02:06:37.491Z,5.0692
2023-05-05T02:07:38.550Z,5.6538
2023-05-05T02:08:39.579Z,5.3923
2023-05-05T02:09:40.677Z,5.6538
2023-05-05T02:10:41.706Z,5.5077
2023-05-05T02:11:42.665Z,5.2538
2023-05-05T02:12:43.720Z,5.0615
2023-05-05T02:13:44.893Z,5.3000
2023-05-05T02:14:45.909Z,4.7462
2023-05-05T02:15:46.959Z,4.7308
2023-05-05T02:16:47.868Z,4.7923
2023-05-05T02:17:48.928Z,4.7846
2023-05-05T02:18:49.953Z,4.8923
2023-05-05T02:19:51.035Z,4.9923
2023-05-05T02:20:52.080Z,4.7846
2023-05-05T02:21:53.073Z,4.5692
2023-05-05T02:22:54.132Z,4.7615
2023-05-05T02:23:55.115Z,4.5769
2023-05-05T02:24:56.233Z,4.7385
2023-05-05T02:25:57.233Z,4.7000
2023-05-05T02:26:58.219Z,4.7692
2023-05-05T02:27:59.295Z,4.7308
2023-05-05T02:29:00.298Z,4.5923
2023-05-05T02:30:01.400Z,4.6000
2023-05-05T02:31:02.466Z,4.6615
2023-05-05T02:32:03.338Z,4.5231
2023-05-05T02:33:04.513Z,4.5385
2023-05-05T02:34:05.473Z,4.3846
2023-05-05T02:35:06.620Z,4.5538
2023-05-05T02:36:07.623Z,4.5077
2023-05-05T02:37:08.573Z,4.6077
2023-05-05T02:38:09.627Z,4.5692
2023-05-05T02:39:10.660Z,4.5077
2023-05-05T02:40:11.786Z,4.6538
2023-05-05T02:41:12.797Z,4.5462
2023-05-05T02:42:13.793Z,4.4000
2023-05-05T02:43:14.823Z,4.7615
2023-05-05T02:44:15.841Z,4.6846
2023-05-05T02:45:16.914Z,4.9769
2023-05-05T02:46:18.011Z,4.9923
2023-05-05T02:47:18.949Z,5.1385
2023-05-05T02:48:20.080Z,5.1154
2023-05-05T02:49:21.016Z,5.1308
2023-05-05T02:50:22.185Z,5.4000
2023-05-05T02:51:23.131Z,5.2077
2023-05-05T02:52:24.218Z,4.9692
2023-05-05T02:53:25.135Z,5.3231
2023-05-05T02:54:26.233Z,5.1462
2023-05-05T02:55:27.276Z,5.3769
2023-05-05T02:56:28.354Z,5.3000
2023-05-05T02:57:29.309Z,5.2385
2023-05-05T02:58:30.351Z,5.3385
2023-05-05T02:59:31.373Z,5.1462
2023-05-05T03:00:32.456Z,5.4000
2023-05-05T03:01:33.525Z,5.5462
2023-05-05T03:02:34.518Z,5.6231
2023-05-05T03:03:35.609Z,5.5846
2023-05-05T03:04:36.566Z,5.5077
2023-05-05T03:05:37.692Z,5.5923
2023-05-05T03:06:38.654Z,5.6077
2023-05-05T03:07:39.653Z,5.5769
2023-05-05T03:08:40.774Z,5.8308
2023-05-05T03:09:41.712Z,5.4077
2023-05-05T03:10:42.815Z,5.5846
2023-05-05T03:11:43.867Z,5.4385
2023-05-05T03:12:44.895Z,5.3846
2023-05-05T03:13:45.914Z,5.4538
2023-05-05T03:14:46.898Z,5.6846
2023-05-05T03:15:47.996Z,5.6077
2023-05-05T03:16:49.015Z,5.3385
2023-05-05T03:17:50.021Z,5.2308
2023-05-05T03:18:51.102Z,5.4154
2023-05-05T03:19:52.080Z,5.3692
2023-05-05T03:20:53.134Z,5.4385
2023-05-05T03:21:54.275Z,5.3308
2023-05-05T03:22:55.241Z,5.3692
2023-05-05T03:23:56.293Z,5.2154
2023-05-05T03:24:57.295Z,5.2462
2023-05-05T03:25:58.336Z,5.1846
2023-05-05T03:26:59.378Z,5.3000
2023-05-05T03:28:00.352Z,5.1769
2023-05-05T03:29:01.370Z,4.9154
2023-05-05T03:30:02.448Z,4.7154
2023-05-05T03:31:03.495Z,5.0308
2023-05-05T03:32:04.656Z,4.8615
2023-05-05T03:33:05.565Z,4.7538
2023-05-05T03:34:06.575Z,4.7769
2023-05-05T03:35:07.587Z,4.9462
2023-05-05T03:36:08.675Z,4.8615
2023-05-05T03:37:09.782Z,4.9385
2023-05-05T03:38:10.771Z,4.8154
2023-05-05T03:39:11.741Z,4.9077
2023-05-05T03:40:12.783Z,4.7692
2023-05-05T03:41:13.851Z,4.9154
2023-05-05T03:42:14.931Z,4.7923
2023-05-05T03:43:15.848Z,4.9462
2023-05-05T03:44:16.953Z,4.9769
2023-05-05T03:45:17.991Z,5.0923
2023-05-05T03:46:19.139Z,4.7308
2023-05-05T03:47:20.081Z,4.9615
2023-05-05T03:48:21.033Z,4.7462
2023-05-05T03:49:22.063Z,4.5615
2023-05-05T03:50:23.185Z,4.8308
2023-05-05T03:51:24.172Z,4.7077
2023-05-05T03:52:25.208Z,4.7308
2023-05-05T03:53:26.172Z,4.6769
2023-05-05T03:54:27.230Z,4.6308
2023-05-05T03:55:28.337Z,4.7308
2023-05-05T03:56:29.428Z,4.6538
2023-05-05T03:57:30.431Z,4.5308
2023-05-05T03:58:31.391Z,4.7462
2023-05-05T03:59:32.443Z,5.2000
2023-05-05T04:00:33.453Z,5.4000
2023-05-05T04:01:34.537Z,5.1692
2023-05-05T04:02:35.627Z,5.4154
2023-05-05T04:03:36.657Z,5.3462
2023-05-05T04:04:37.618Z,5.6769
2023-05-05T04:05:38.628Z,5.3154
2023-05-05T04:06:39.757Z,5.0769
2023-05-05T04:07:40.739Z,5.5077
2023-05-05T04:08:41.790Z,5.2308
2023-05-05T04:09:42.793Z,5.0077
2023-05-05T04:10:43.836Z,4.9462
2023-05-05T04:11:44.947Z,4.8615
2023-05-05T04:12:46.003Z,4.8231
2023-05-05T04:13:46.959Z,5.0462
2023-05-05T04:14:48.000Z,4.9692
2023-05-05T04:15:49.050Z,4.9846
2023-05-05T04:16:50.097Z,5.2538
2023-05-05T04:17:51.194Z,5.1077
2023-05-05T04:18:52.157Z,5.3000
2023-05-05T04:19:53.137Z,5.1538
2023-05-05T04:20:54.219Z,5.2231
2023-05-05T04:21:55.281Z,5.3308
2023-05-05T04:22:56.389Z,5.1538
2023-05-05T04:23:57.287Z,5.0846
2023-05-05T04:24:58.353Z,5.3385
2023-05-05T04:25:59.353Z,5.0077
2023-05-05T04:27:00.505Z,5.0385
2023-05-05T04:28:01.605Z,4.9231
2023-05-05T04:29:02.526Z,5.0000
2023-05-05T04:30:03.515Z,4.8000
2023-05-05T04:31:04.563Z,5.0154
2023-05-05T04:32:05.651Z,4.8846
2023-05-05T04:33:06.674Z,5.0000
2023-05-05T04:34:07.672Z,4.8308
2023-05-05T04:35:08.684Z,5.0692
2023-05-05T04:36:09.735Z,4.8692
2023-05-05T04:37:10.853Z,4.7692
2023-05-05T04:38:11.870Z,4.8615
2023-05-05T04:39:12.837Z,5.1000
2023-05-05T04:40:13.902Z,4.9615
2023-05-05T04:41:14.939Z,4.9000
2023-05-05T04:42:15.995Z,4.8000
2023-05-05T04:43:17.007Z,4.9308
2023-05-05T04:44:17.976Z,5.1462
2023-05-05T04:45:19.072Z,5.2154
2023-05-05T04:46:20.200Z,5.2308
2023-05-05T04:47:21.172Z,5.1231
2023-05-05T04:48:22.194Z,5.3615
2023-05-05T04:49:23.201Z,5.2692
2023-05-05T04:50:24.205Z,5.0615
2023-05-05T04:51:25.248Z,5.0308
2023-05-05T04:52:26.334Z,5.0308
2023-05-05T04:53:27.401Z,5.1231
2023-05-05T04:54:28.407Z,5.0077
2023-05-05T04:55:29.399Z,4.9308
2023-05-05T04:56:30.447Z,5.1692
2023-05-05T04:57:31.518Z,5.2077
2023-05-05T04:58:32.562Z,4.9231
2023-05-05T04:59:33.558Z,5.1077
2023-05-05T05:00:34.622Z,4.9769
2023-05-05T05:01:37.730Z,4.8538
2023-05-05T05:02:36.727Z,4.8769
2023-05-05T05:03:39.156Z,4.9231
2023-05-05T05:04:38.765Z,4.8154
2023-05-05T05:05:39.757Z,4.7231
2023-05-05T05:06:40.797Z,4.5692
2023-05-05T05:07:41.878Z,4.7462
2023-05-05T05:08:42.910Z,4.8769
2023-05-05T05:09:43.956Z,4.9615
2023-05-05T05:10:44.999Z,5.0615
2023-05-05T05:11:46.030Z,4.8231
2023-05-05T05:12:47.032Z,5.0462
2023-05-05T05:13:48.062Z,5.1000
2023-05-05T05:14:49.067Z,5.1692
2023-05-05T05:15:50.107Z,5.4308
2023-05-05T05:16:51.225Z,5.2154
2023-05-05T05:17:52.181Z,5.2000
2023-05-05T05:18:53.213Z,5.3077
2023-05-05T05:19:54.245Z,5.2692
2023-05-05T05:20:55.245Z,5.2231
2023-05-05T05:21:56.289Z,5.1385
2023-05-05T05:22:57.373Z,5.5923
2023-05-05T05:23:58.402Z,5.5615
2023-05-05T05:24:59.408Z,5.8615
2023-05-05T05:26:00.421Z,6.4077
2023-05-05T05:27:01.452Z,6.2615
2023-05-05T05:28:10.164Z,6.0923
2023-05-05T05:29:03.630Z,6.5846
2023-05-05T05:30:04.592Z,6.6769
2023-05-05T05:31:05.606Z,6.8231
2023-05-05T05:32:06.814Z,6.7538
2023-05-05T05:33:07.855Z,6.7308
2023-05-05T05:34:09.767Z,7.2231
2023-05-05T05:35:09.769Z,7.1846
2023-05-05T05:36:10.803Z,7.4385
2023-05-05T05:37:11.843Z,7.1769
2023-05-05T05:38:12.918Z,7.3231
2023-05-05T05:39:14.104Z,7.3615
2023-05-05T05:40:14.945Z,7.4846
2023-05-05T05:41:15.963Z,7.4154
2023-05-05T05:42:17.018Z,7.7154
2023-05-05T05:43:18.055Z,7.8692
2023-05-05T05:44:19.194Z,7.9692
2023-05-05T05:45:20.115Z,7.7385
2023-05-05T05:46:21.217Z,7.8385
2023-05-05T05:47:22.182Z,8.0385
2023-05-05T05:48:23.270Z,7.8077
2023-05-05T05:49:24.338Z,7.4615
2023-05-05T05:50:25.323Z,7.2769
2023-05-05T05:51:26.322Z,7.3077
2023-05-05T05:52:27.383Z,7.4538
2023-05-05T05:53:28.430Z,7.0846
2023-05-05T05:54:29.443Z,7.0846
2023-05-05T05:55:30.513Z,7.0154
2023-05-05T05:56:31.533Z,6.7154
2023-05-05T05:57:32.563Z,6.4692
2023-05-05T05:58:33.587Z,6.5154
2023-05-05T05:59:34.658Z,6.7538
2023-05-05T06:00:35.616Z,6.5615
2023-05-05T06:01:36.694Z,6.4308
2023-05-05T06:02:37.791Z,6.5154
2023-05-05T06:03:38.869Z,6.4769
2023-05-05T06:04:39.880Z,6.3385
2023-05-05T06:05:40.844Z,6.6000
2023-05-05T06:06:41.824Z,6.5154
2023-05-05T06:07:42.927Z,6.6692
2023-05-05T06:08:43.950Z,6.7154
2023-05-05T06:09:44.984Z,6.7769
2023-05-05T06:10:46.001Z,6.4923
2023-05-05T06:11:47.036Z,9.4154
2023-05-05T06:12:48.084Z,9.2308
2023-05-05T06:13:49.083Z,13.8462
2023-05-05T06:14:50.154Z,9.3385
2023-05-05T06:15:51.240Z,7.2154
2023-05-05T06:16:52.228Z,6.9769
2023-05-05T06:17:53.311Z,7.0615
2023-05-05T06:18:54.284Z,6.9462
2023-05-05T06:19:55.354Z,6.6308
2023-05-05T06:20:56.361Z,6.8308
2023-05-05T06:21:57.419Z,6.4231
2023-05-05T06:22:58.452Z,6.1692
2023-05-05T06:23:59.475Z,6.0154
2023-05-05T06:25:00.502Z,5.5615
2023-05-05T06:26:01.604Z,4.9692
2023-05-05T06:27:02.600Z,4.8846
2023-05-05T06:28:03.611Z,4.8692
2023-05-05T06:29:04.614Z,5.0000
2023-05-05T06:30:05.937Z,5.1000
2023-05-05T06:31:06.747Z,4.6846
2023-05-05T06:32:07.784Z,4.7385
2023-05-05T06:33:08.820Z,4.9923
2023-05-05T06:34:09.782Z,4.9154
2023-05-05T06:35:10.854Z,5.0846
2023-05-05T06:36:11.916Z,5.0154
2023-05-05T06:37:12.923Z,4.7769
2023-05-05T06:38:14.148Z,4.8923
2023-05-05T06:39:16.169Z,4.6538
2023-05-05T06:40:16.125Z,5.6846
2023-05-05T06:41:17.148Z,8.4846
2023-05-05T06:42:18.230Z,6.3385
2023-05-05T06:43:19.265Z,4.7000
2023-05-05T06:44:20.302Z,4.2923
2023-05-05T06:45:21.287Z,4.7769
2023-05-05T06:46:22.407Z,5.8923
2023-05-05T06:47:23.404Z,5.5154
2023-05-05T06:48:24.447Z,6.5385
2023-05-05T06:49:25.464Z,5.7462
2023-05-05T06:50:26.463Z,5.0154
2023-05-05T06:51:27.502Z,5.0077
2023-05-05T06:52:28.614Z,5.0846
2023-05-05T06:53:29.576Z,6.5462
2023-05-05T06:54:30.593Z,5.3692
2023-05-05T06:55:31.731Z,4.7615
2023-05-05T06:56:32.701Z,5.2692
2023-05-05T06:57:33.746Z,5.2923
2023-05-05T06:58:34.841Z,4.7692
2023-05-05T06:59:35.791Z,4.9154
2023-05-05T07:00:36.894Z,5.1538
2023-05-05T07:01:37.858Z,5.7462
2023-05-05T07:02:39.055Z,4.4538
2023-05-05T07:03:40.020Z,4.3231
2023-05-05T07:04:41.096Z,4.2385
2023-05-05T07:05:42.007Z,4.2462
2023-05-05T07:06:43.140Z,4.4769
2023-05-05T07:07:44.114Z,4.1538
2023-05-05T07:08:45.226Z,4.3000
2023-05-05T07:09:46.195Z,4.3615
2023-05-05T07:10:47.328Z,4.5154
2023-05-05T07:11:48.268Z,4.4462
2023-05-05T07:12:49.387Z,4.4000
2023-05-05T07:13:50.371Z,4.1385
2023-05-05T07:14:51.417Z,3.9000
2023-05-05T07:15:52.390Z,3.8000
2023-05-05T07:16:53.590Z,3.7308
2023-05-05T07:17:54.547Z,3.7846
2023-05-05T07:18:55.538Z,3.8846
2023-05-05T07:19:56.579Z,4.2231
2023-05-05T07:20:57.542Z,4.1846
2023-05-05T07:21:58.596Z,4.1462
2023-05-05T07:22:59.621Z,4.2308
2023-05-05T07:24:00.714Z,4.5846
2023-05-05T07:25:01.707Z,4.6154
2023-05-05T07:26:02.850Z,4.2769
2023-05-05T07:27:03.740Z,4.2385
2023-05-05T07:28:04.841Z,3.8462
2023-05-05T07:29:05.873Z,3.6000
2023-05-05T07:30:11.211Z,3.6846
2023-05-05T07:31:07.889Z,3.8077
2023-05-05T07:32:09.024Z,4.4846
2023-05-05T07:33:10.087Z,4.4231
2023-05-05T07:34:11.058Z,4.1769
2023-05-05T07:35:12.127Z,4.3231
2023-05-05T07:36:13.151Z,4.0615
2023-05-05T07:37:14.106Z,4.0308
2023-05-05T07:38:15.165Z,4.2077
2023-05-05T07:39:16.223Z,3.8923
2023-05-05T07:40:17.279Z,3.8846
2023-05-05T07:41:18.299Z,3.3923
2023-05-05T07:42:19.316Z,3.4846
2023-05-05T07:43:20.318Z,3.4154
2023-05-05T07:44:21.459Z,3.2462
2023-05-05T07:45:22.424Z,3.2538
2023-05-05T07:46:23.467Z,3.2692
2023-05-05T07:47:24.542Z,3.5923
2023-05-05T07:48:25.566Z,3.6000
2023-05-05T07:49:26.569Z,3.5231
2023-05-05T07:50:27.627Z,3.3231
2023-05-05T07:51:28.594Z,3.4000
2023-05-05T07:52:44.223Z,3.2462
2023-05-05T07:53:30.666Z,3.4000
2023-05-05T07:54:31.799Z,3.1154
2023-05-05T07:55:32.752Z,3.2231
2023-05-05T07:56:33.856Z,3.2231
2023-05-05T07:57:34.796Z,3.3462
2023-05-05T07:58:35.865Z,3.4077
2023-05-05T07:59:36.914Z,3.3077
2023-05-05T08:00:37.981Z,3.2231
2023-05-05T08:01:38.930Z,3.2385
2023-05-05T08:02:40.067Z,3.4231
2023-05-05T08:03:41.076Z,3.2231
2023-05-05T08:04:42.306Z,3.2077
2023-05-05T08:05:43.187Z,3.3692
2023-05-05T08:06:44.194Z,3.2462
2023-05-05T08:07:45.189Z,3.1538
2023-05-05T08:08:46.166Z,3.3538
2023-05-05T08:09:47.285Z,3.4923
2023-05-05T08:10:48.318Z,3.5308
2023-05-05T08:11:49.365Z,3.5231
2023-05-05T08:12:50.322Z,3.4692
2023-05-05T08:13:51.447Z,3.4077
2023-05-05T08:14:52.418Z,3.3154
2023-05-05T08:15:53.542Z,3.2692
2023-05-05T08:16:54.472Z,3.4000
2023-05-05T08:17:55.582Z,3.1615
2023-05-05T08:18:56.539Z,3.2462
2023-05-05T08:19:57.620Z,3.2923
2023-05-05T08:20:58.652Z,3.2538
2023-05-05T08:22:01.374Z,3.5462
2023-05-05T08:23:00.686Z,3.8385
2023-05-05T08:24:01.732Z,3.4077
2023-05-05T08:25:02.782Z,3.4538
2023-05-05T08:26:03.887Z,3.3154
2023-05-05T08:27:04.872Z,3.4385
2023-05-05T08:28:05.866Z,3.4692
2023-05-05T08:29:06.872Z,3.4077
2023-05-05T08:30:07.981Z,3.4462
2023-05-05T08:31:09.011Z,3.3538
2023-05-05T08:32:10.020Z,3.4231
2023-05-05T08:33:11.094Z,3.5846
2023-05-05T08:34:12.088Z,3.5462
2023-05-05T08:35:13.359Z,3.6231
2023-05-05T08:36:14.185Z,3.6769
2023-05-05T08:37:15.206Z,3.4769
2023-05-05T08:38:16.223Z,3.5923
2023-05-05T08:39:17.316Z,3.4769
2023-05-05T08:40:18.321Z,3.3769
2023-05-05T08:41:19.345Z,3.5231
2023-05-05T08:42:35.605Z,3.7154
2023-05-05T08:43:21.331Z,3.4000
2023-05-05T08:44:22.401Z,3.7000
2023-05-05T08:45:23.481Z,3.7615
2023-05-05T08:46:24.523Z,3.7538
2023-05-05T08:47:25.527Z,3.8154
2023-05-05T08:48:26.596Z,3.9231
2023-05-05T08:49:27.536Z,4.3308
2023-05-05T08:50:28.647Z,4.1692
2023-05-05T08:51:29.674Z,3.9308
2023-05-05T08:52:30.741Z,3.8538
2023-05-05T08:53:31.716Z,3.9692
2023-05-05T08:54:32.738Z,4.1077
2023-05-05T08:55:33.794Z,3.9538
2023-05-05T08:56:34.847Z,4.0231
2023-05-05T08:57:35.917Z,3.9462
2023-05-05T08:58:36.910Z,3.7615
2023-05-05T08:59:37.908Z,3.9385
2023-05-05T09:00:39.028Z,3.6308
2023-05-05T09:01:40.042Z,3.6923
2023-05-05T09:02:41.105Z,3.6077
2023-05-05T09:03:42.311Z,3.7385
2023-05-05T09:04:43.093Z,3.7692
2023-05-05T09:05:44.151Z,3.9538
2023-05-05T09:06:45.234Z,3.8000
2023-05-05T09:07:46.233Z,3.8154
2023-05-05T09:08:47.235Z,4.1308
2023-05-05T09:09:48.246Z,3.9154
2023-05-05T09:10:49.435Z,4.0769
2023-05-05T09:11:50.447Z,3.9846
2023-05-05T09:12:51.702Z,3.9615
2023-05-05T09:13:52.469Z,3.9154
2023-05-05T09:14:53.552Z,4.4077
2023-05-05T09:15:54.565Z,3.9385
2023-05-05T09:16:55.601Z,3.9385
2023-05-05T09:17:56.636Z,3.7462
2023-05-05T09:18:57.654Z,3.8615
2023-05-05T09:19:58.672Z,3.9462
2023-05-05T09:20:59.826Z,3.8538
2023-05-05T09:22:00.804Z,3.6846
2023-05-05T09:23:01.790Z,3.5692
2023-05-05T09:24:07.824Z,3.9385
2023-05-05T09:25:03.902Z,3.6538
2023-05-05T09:26:04.954Z,3.7154
2023-05-05T09:27:05.976Z,3.9154
2023-05-05T09:28:07.008Z,4.1000
2023-05-05T09:29:08.006Z,3.9846
2023-05-05T09:30:09.037Z,3.7385
2023-05-05T09:31:10.149Z,3.6077
2023-05-05T09:32:11.241Z,3.5538
2023-05-05T09:33:12.177Z,3.5538
2023-05-05T09:34:13.185Z,3.5462
2023-05-05T09:35:14.253Z,3.7846
2023-05-05T09:36:15.280Z,3.5154
2023-05-05T09:37:16.285Z,4.3923
2023-05-05T09:38:17.338Z,4.0154
2023-05-05T09:39:18.346Z,3.6769
2023-05-05T09:40:19.533Z,3.8923
2023-05-05T09:41:20.441Z,3.5769
2023-05-05T09:42:21.540Z,3.7000
2023-05-05T09:43:22.496Z,3.9154
2023-05-05T09:44:23.497Z,3.7308
2023-05-05T09:45:24.516Z,3.8462
2023-05-05T09:46:25.726Z,3.9462
2023-05-05T09:47:29.904Z,4.3154
2023-05-05T09:48:27.736Z,4.3538
2023-05-05T09:49:28.653Z,4.3769
2023-05-05T09:50:29.730Z,4.3615
2023-05-05T09:51:30.753Z,4.5077
2023-05-05T09:52:31.831Z,4.1077
2023-05-05T09:53:32.797Z,4.2615
2023-05-05T09:54:33.835Z,4.1154
2023-05-05T09:55:34.826Z,4.1923
2023-05-05T09:56:35.966Z,4.1538
2023-05-05T09:57:37.011Z,4.3308
2023-05-05T09:58:38.077Z,4.2231
2023-05-05T09:59:38.986Z,4.2462
2023-05-05T10:00:40.009Z,4.1462
2023-05-05T10:01:41.115Z,4.3538
2023-05-05T10:02:42.242Z,4.2000
2023-05-05T10:03:43.105Z,3.9923
2023-05-05T10:04:44.158Z,4.2846
2023-05-05T10:05:45.157Z,4.0846
2023-05-05T10:06:46.263Z,4.1385
2023-05-05T10:07:47.321Z,4.2000
2023-05-05T10:08:48.285Z,4.0692
2023-05-05T10:09:49.329Z,4.1385
2023-05-05T10:10:50.326Z,4.4462
2023-05-05T10:11:51.442Z,4.1385
2023-05-05T10:12:52.496Z,4.1923
2023-05-05T10:13:53.479Z,3.8231
2023-05-05T10:14:54.434Z,3.8769
2023-05-05T10:15:55.518Z,3.7923
2023-05-05T10:16:56.593Z,3.9308
2023-05-05T10:18:06.893Z,4.0000
2023-05-05T10:18:58.591Z,4.3077
2023-05-05T10:19:59.640Z,4.1308
2023-05-05T10:21:00.662Z,4.2077
2023-05-05T10:22:01.740Z,4.3538
2023-05-05T10:23:02.715Z,4.3000
2023-05-05T10:24:03.661Z,4.5000
2023-05-05T10:25:04.724Z,4.2538
2023-05-05T10:26:05.725Z,4.2385
2023-05-05T10:27:06.808Z,4.0000
2023-05-05T10:28:07.843Z,4.0769
2023-05-05T10:29:08.868Z,3.9154
2023-05-05T10:30:10.110Z,4.0692
2023-05-05T10:31:24.587Z,4.1308
2023-05-05T10:32:33.545Z,4.2154
2023-05-05T10:33:30.212Z,4.2231
2023-05-05T10:34:14.107Z,4.4077
2023-05-05T10:35:15.074Z,4.3692
2023-05-05T10:36:16.136Z,4.3846
2023-05-05T10:37:17.125Z,4.3538
2023-05-05T10:38:18.160Z,4.1231
2023-05-05T10:39:19.336Z,4.2769
2023-05-05T10:40:20.377Z,4.5385
2023-05-05T10:41:21.334Z,4.4077
2023-05-05T10:42:22.424Z,4.1692
2023-05-05T10:43:23.540Z,4.5385
2023-05-05T10:44:24.572Z,4.6923
2023-05-05T10:45:25.627Z,4.6692
2023-05-05T10:46:26.770Z,4.7692
2023-05-05T10:47:27.590Z,4.5462
2023-05-05T10:48:28.700Z,4.6692
2023-05-05T10:49:29.734Z,4.8462
2023-05-05T10:50:30.780Z,4.6308
2023-05-05T10:51:40.459Z,4.5538
2023-05-05T10:52:32.789Z,4.2769
2023-05-05T10:53:33.825Z,4.0769
2023-05-05T10:54:37.173Z,4.2077
2023-05-05T10:55:35.879Z,4.1462
2023-05-05T10:56:36.940Z,4.1231
2023-05-05T10:57:37.976Z,4.3000
2023-05-05T10:58:47.477Z,4.1923
2023-05-05T10:59:40.181Z,4.2692
2023-05-05T11:00:41.077Z,4.4000
2023-05-05T11:01:42.145Z,4.2769
2023-05-05T11:02:43.212Z,4.1692
2023-05-05T11:03:44.206Z,4.0231
2023-05-05T11:04:45.237Z,4.1231
2023-05-05T11:05:46.195Z,4.0846
2023-05-05T11:06:47.300Z,4.0923
2023-05-05T11:07:48.282Z,4.0846
2023-05-05T11:08:49.354Z,4.1154
2023-05-05T11:09:50.479Z,4.2615
2023-05-05T11:10:51.420Z,4.0462
2023-05-05T11:11:52.446Z,4.2769
2023-05-05T11:12:53.521Z,4.4462
2023-05-05T11:13:54.530Z,4.9615
2023-05-05T11:14:55.621Z,4.3462
2023-05-05T11:15:56.536Z,3.9154
2023-05-05T11:16:57.640Z,4.0154
2023-05-05T11:17:58.675Z,4.0154
2023-05-05T11:18:59.747Z,3.8692
2023-05-05T11:20:00.753Z,3.8154
2023-05-05T11:21:01.798Z,4.1154
2023-05-05T11:22:02.772Z,3.8462
2023-05-05T11:23:03.829Z,3.9154
2023-05-05T11:24:04.884Z,3.6538
2023-05-05T11:25:05.917Z,3.8769
2023-05-05T11:26:06.969Z,4.0538
2023-05-05T11:27:07.891Z,4.0000
2023-05-05T11:28:09.065Z,3.9462
2023-05-05T11:29:10.046Z,3.8308
2023-05-05T11:30:11.343Z,3.7615
2023-05-05T11:31:12.077Z,3.6077
2023-05-05T11:32:13.106Z,3.3462
2023-05-05T11:33:14.091Z,4.3462
2023-05-05T11:34:15.193Z,6.0846
2023-05-05T11:35:16.242Z,3.8769
2023-05-05T11:36:17.294Z,3.9692
2023-05-05T11:37:18.235Z,4.7154
2023-05-05T11:38:19.302Z,4.4615
2023-05-05T11:39:20.340Z,5.3308
2023-05-05T11:40:21.399Z,5.3923
2023-05-05T11:41:22.360Z,4.2923
2023-05-05T11:42:23.434Z,4.0462
2023-05-05T11:43:24.476Z,4.2538
2023-05-05T11:44:25.526Z,4.3923
2023-05-05T11:45:26.669Z,3.9462
2023-05-05T11:46:27.593Z,4.0231
2023-05-05T11:47:28.602Z,4.0385
2023-05-05T11:48:29.632Z,4.0615
2023-05-05T11:49:30.720Z,4.0385
2023-05-05T11:50:31.715Z,3.9846
2023-05-05T11:51:32.688Z,3.5846
2023-05-05T11:52:33.768Z,3.6000
2023-05-05T11:53:34.781Z,3.8154
2023-05-05T11:54:35.856Z,4.0385
2023-05-05T11:55:36.907Z,4.1538
2023-05-05T11:56:37.868Z,3.8462
2023-05-05T11:57:38.859Z,3.8846
2023-05-05T11:58:39.925Z,3.6923
2023-05-05T11:59:40.979Z,3.7538
2023-05-05T12:00:42.034Z,3.6308
2023-05-05T12:01:43.006Z,3.8154
2023-05-05T12:02:44.192Z,3.9308
2023-05-05T12:03:45.289Z,3.7769
2023-05-05T12:04:46.197Z,3.6923
2023-05-05T12:05:47.156Z,3.3692
2023-05-05T12:06:48.166Z,3.4615
2023-05-05T12:07:49.215Z,3.4692
2023-05-05T12:08:50.277Z,3.4308
2023-05-05T12:09:51.352Z,3.3154
2023-05-05T12:10:52.356Z,3.7000
2023-05-05T12:11:53.337Z,3.6923
2023-05-05T12:12:55.521Z,3.4154
2023-05-05T12:13:55.379Z,3.6231
2023-05-05T12:14:56.452Z,3.5385
2023-05-05T12:15:57.643Z,3.7538
2023-05-05T12:16:58.610Z,3.7462
2023-05-05T12:18:02.111Z,3.6308
2023-05-05T12:19:00.571Z,3.6923
2023-05-05T12:20:01.621Z,3.9692
2023-05-05T12:21:02.690Z,3.9231
2023-05-05T12:22:03.689Z,3.7231
2023-05-05T12:23:04.806Z,3.9154
2023-05-05T12:24:05.729Z,4.0538
2023-05-05T12:25:06.813Z,3.8000
2023-05-05T12:26:07.881Z,3.9462
2023-05-05T12:27:08.857Z,3.8538
2023-05-05T12:28:09.952Z,3.9692
2023-05-05T12:29:10.976Z,3.9385
2023-05-05T12:30:12.009Z,3.6462
2023-05-05T12:31:13.212Z,3.7769
2023-05-05T12:32:14.179Z,4.1538
2023-05-05T12:33:14.983Z,4.0692
2023-05-05T12:34:15.982Z,3.7538
2023-05-05T12:35:17.179Z,3.7000
2023-05-05T12:36:18.180Z,3.8231
2023-05-05T12:37:19.288Z,3.8615
2023-05-05T12:38:20.215Z,3.7846
2023-05-05T12:39:21.290Z,3.7000
2023-05-05T12:40:22.389Z,3.6231
2023-05-05T12:41:23.444Z,3.8462